sensor_id;sensor_type;location;lat;lon;timestamp;P1;durP1;ratioP1;P2;durP2;ratioP2
76439;SDS011;65274;44.982;20.060;2023-03-03T00:00:14;53.70;;;27.10;;
76439;SDS011;65274;44.982;20.060;2023-03-03T00:02:40;56.13;;;28.77;;
76439;SDS011;65274;44.982;20.060;2023-03-03T00:05:06;55.88;;;28.58;;
76439;SDS011;65274;44.982;20.060;2023-03-03T00:07:32;60.42;;;30.30;;
76439;SDS011;65274;44.982;20.060;2023-03-03T00:09:58;53.60;;;27.13;;
76439;SDS011;65274;44.982;20.060;2023-03-03T00:12:26;54.20;;;26.55;;
76439;SDS011;65274;44.982;20.060;2023-03-03T00:14:53;51.23;;;26.53;;
76439;SDS011;65274;44.982;20.060;2023-03-03T00:19:45;47.70;;;25.25;;
76439;SDS011;65274;44.982;20.060;2023-03-03T00:22:53;52.88;;;27.33;;
76439;SDS011;65274;44.982;20.060;2023-03-03T00:25:43;60.95;;;30.83;;
76439;SDS011;65274;44.982;20.060;2023-03-03T00:27:49;71.20;;;37.08;;
76439;SDS011;65274;44.982;20.060;2023-03-03T00:30:16;53.45;;;26.63;;
76439;SDS011;65274;44.982;20.060;2023-03-03T00:32:43;55.72;;;28.85;;
76439;SDS011;65274;44.982;20.060;2023-03-03T00:35:37;57.90;;;29.08;;
76439;SDS011;65274;44.982;20.060;2023-03-03T00:38:11;52.92;;;26.25;;
76439;SDS011;65274;44.982;20.060;2023-03-03T00:40:39;55.35;;;28.42;;
76439;SDS011;65274;44.982;20.060;2023-03-03T00:43:14;55.10;;;26.55;;
76439;SDS011;65274;44.982;20.060;2023-03-03T00:45:43;52.67;;;27.17;;
76439;SDS011;65274;44.982;20.060;2023-03-03T00:48:16;55.38;;;29.98;;
76439;SDS011;65274;44.982;20.060;2023-03-03T00:50:44;53.03;;;28.52;;
76439;SDS011;65274;44.982;20.060;2023-03-03T00:53:12;48.88;;;24.98;;
76439;SDS011;65274;44.982;20.060;2023-03-03T00:55:41;51.17;;;27.33;;
76439;SDS011;65274;44.982;20.060;2023-03-03T00:58:07;57.45;;;30.38;;
76439;SDS011;65274;44.982;20.060;2023-03-03T01:00:34;54.38;;;26.40;;
76439;SDS011;65274;44.982;20.060;2023-03-03T01:03:33;67.47;;;38.75;;
76439;SDS011;65274;44.982;20.060;2023-03-03T01:05:53;51.72;;;27.33;;
76439;SDS011;65274;44.982;20.060;2023-03-03T01:08:19;50.08;;;25.73;;
76439;SDS011;65274;44.982;20.060;2023-03-03T01:10:53;52.28;;;26.00;;
76439;SDS011;65274;44.982;20.060;2023-03-03T01:13:20;51.13;;;24.83;;
76439;SDS011;65274;44.982;20.060;2023-03-03T01:15:47;55.95;;;27.33;;
76439;SDS011;65274;44.982;20.060;2023-03-03T01:18:13;52.88;;;26.80;;
76439;SDS011;65274;44.982;20.060;2023-03-03T01:20:39;53.00;;;28.63;;
76439;SDS011;65274;44.982;20.060;2023-03-03T01:23:05;57.63;;;28.73;;
76439;SDS011;65274;44.982;20.060;2023-03-03T01:25:31;49.80;;;26.20;;
76439;SDS011;65274;44.982;20.060;2023-03-03T01:27:57;56.53;;;26.33;;
76439;SDS011;65274;44.982;20.060;2023-03-03T01:30:24;47.30;;;26.05;;
76439;SDS011;65274;44.982;20.060;2023-03-03T01:32:50;47.55;;;27.00;;
76439;SDS011;65274;44.982;20.060;2023-03-03T01:35:16;56.80;;;26.30;;
76439;SDS011;65274;44.982;20.060;2023-03-03T01:37:42;52.03;;;27.00;;
76439;SDS011;65274;44.982;20.060;2023-03-03T01:43:04;49.38;;;26.10;;
76439;SDS011;65274;44.982;20.060;2023-03-03T01:45:31;47.03;;;25.13;;
76439;SDS011;65274;44.982;20.060;2023-03-03T01:48:00;43.78;;;23.92;;
76439;SDS011;65274;44.982;20.060;2023-03-03T01:52:54;46.90;;;24.67;;
76439;SDS011;65274;44.982;20.060;2023-03-03T01:55:24;47.05;;;23.73;;
76439;SDS011;65274;44.982;20.060;2023-03-03T02:00:49;47.80;;;26.73;;
76439;SDS011;65274;44.982;20.060;2023-03-03T02:03:17;48.45;;;26.13;;
76439;SDS011;65274;44.982;20.060;2023-03-03T02:05:43;50.90;;;25.67;;
76439;SDS011;65274;44.982;20.060;2023-03-03T02:08:10;50.08;;;27.15;;
76439;SDS011;65274;44.982;20.060;2023-03-03T02:10:36;47.08;;;25.33;;
76439;SDS011;65274;44.982;20.060;2023-03-03T02:13:03;47.70;;;25.15;;
76439;SDS011;65274;44.982;20.060;2023-03-03T02:15:30;53.17;;;26.90;;
76439;SDS011;65274;44.982;20.060;2023-03-03T02:18:02;54.75;;;28.40;;
76439;SDS011;65274;44.982;20.060;2023-03-03T02:25:41;53.20;;;27.52;;
76439;SDS011;65274;44.982;20.060;2023-03-03T02:28:08;88.68;;;50.45;;
76439;SDS011;65274;44.982;20.060;2023-03-03T02:30:38;63.28;;;34.17;;
76439;SDS011;65274;44.982;20.060;2023-03-03T02:33:04;122.93;;;70.28;;
76439;SDS011;65274;44.982;20.060;2023-03-03T02:35:31;352.83;;;177.52;;
76439;SDS011;65274;44.982;20.060;2023-03-03T02:38:03;583.97;;;331.17;;
76439;SDS011;65274;44.982;20.060;2023-03-03T02:40:33;427.35;;;206.80;;
76439;SDS011;65274;44.982;20.060;2023-03-03T02:43:01;238.60;;;105.75;;
76439;SDS011;65274;44.982;20.060;2023-03-03T02:45:27;405.50;;;206.40;;
76439;SDS011;65274;44.982;20.060;2023-03-03T02:47:53;615.42;;;366.02;;
76439;SDS011;65274;44.982;20.060;2023-03-03T02:50:19;649.90;;;388.15;;
76439;SDS011;65274;44.982;20.060;2023-03-03T02:52:46;761.13;;;458.63;;
76439;SDS011;65274;44.982;20.060;2023-03-03T02:55:12;535.55;;;326.73;;
76439;SDS011;65274;44.982;20.060;2023-03-03T02:57:38;473.67;;;255.45;;
76439;SDS011;65274;44.982;20.060;2023-03-03T03:00:04;461.60;;;261.23;;
76439;SDS011;65274;44.982;20.060;2023-03-03T03:02:30;547.13;;;328.10;;
76439;SDS011;65274;44.982;20.060;2023-03-03T03:04:56;384.25;;;205.52;;
76439;SDS011;65274;44.982;20.060;2023-03-03T03:07:22;83.40;;;46.47;;
76439;SDS011;65274;44.982;20.060;2023-03-03T03:09:48;687.13;;;395.17;;
76439;SDS011;65274;44.982;20.060;2023-03-03T03:12:15;555.58;;;309.92;;
76439;SDS011;65274;44.982;20.060;2023-03-03T03:14:43;621.83;;;360.65;;
76439;SDS011;65274;44.982;20.060;2023-03-03T03:17:09;144.48;;;73.38;;
76439;SDS011;65274;44.982;20.060;2023-03-03T03:19:36;87.30;;;44.38;;
76439;SDS011;65274;44.982;20.060;2023-03-03T03:22:02;67.30;;;34.08;;
76439;SDS011;65274;44.982;20.060;2023-03-03T03:24:28;58.03;;;29.38;;
76439;SDS011;65274;44.982;20.060;2023-03-03T03:26:54;52.38;;;28.58;;
76439;SDS011;65274;44.982;20.060;2023-03-03T03:29:20;59.70;;;30.42;;
76439;SDS011;65274;44.982;20.060;2023-03-03T03:31:46;63.28;;;30.92;;
76439;SDS011;65274;44.982;20.060;2023-03-03T03:34:12;128.60;;;64.47;;
76439;SDS011;65274;44.982;20.060;2023-03-03T03:36:38;333.67;;;154.55;;
76439;SDS011;65274;44.982;20.060;2023-03-03T03:39:05;87.75;;;43.40;;
76439;SDS011;65274;44.982;20.060;2023-03-03T03:41:31;53.90;;;30.65;;
76439;SDS011;65274;44.982;20.060;2023-03-03T03:43:57;52.65;;;28.90;;
76439;SDS011;65274;44.982;20.060;2023-03-03T03:46:23;57.20;;;28.50;;
76439;SDS011;65274;44.982;20.060;2023-03-03T03:48:49;53.70;;;27.20;;
76439;SDS011;65274;44.982;20.060;2023-03-03T03:51:15;44.40;;;24.65;;
76439;SDS011;65274;44.982;20.060;2023-03-03T03:53:41;52.20;;;27.40;;
76439;SDS011;65274;44.982;20.060;2023-03-03T03:56:07;51.78;;;27.10;;
76439;SDS011;65274;44.982;20.060;2023-03-03T03:58:33;51.67;;;27.00;;
76439;SDS011;65274;44.982;20.060;2023-03-03T04:01:04;48.38;;;25.10;;
76439;SDS011;65274;44.982;20.060;2023-03-03T04:03:30;50.20;;;26.70;;
76439;SDS011;65274;44.982;20.060;2023-03-03T04:05:56;49.22;;;27.63;;
76439;SDS011;65274;44.982;20.060;2023-03-03T04:08:23;60.90;;;30.92;;
76439;SDS011;65274;44.982;20.060;2023-03-03T04:10:49;101.40;;;52.60;;
76439;SDS011;65274;44.982;20.060;2023-03-03T04:13:15;160.10;;;83.47;;
76439;SDS011;65274;44.982;20.060;2023-03-03T04:15:41;152.93;;;80.80;;
76439;SDS011;65274;44.982;20.060;2023-03-03T04:18:07;65.10;;;33.58;;
76439;SDS011;65274;44.982;20.060;2023-03-03T04:20:33;79.88;;;44.25;;
76439;SDS011;65274;44.982;20.060;2023-03-03T04:22:59;78.80;;;44.58;;
76439;SDS011;65274;44.982;20.060;2023-03-03T04:25:25;150.95;;;85.78;;
76439;SDS011;65274;44.982;20.060;2023-03-03T04:27:51;112.32;;;59.45;;
76439;SDS011;65274;44.982;20.060;2023-03-03T04:30:18;92.90;;;49.97;;
76439;SDS011;65274;44.982;20.060;2023-03-03T04:32:44;58.20;;;30.25;;
76439;SDS011;65274;44.982;20.060;2023-03-03T04:35:11;57.80;;;29.77;;
76439;SDS011;65274;44.982;20.060;2023-03-03T04:37:37;56.50;;;28.38;;
76439;SDS011;65274;44.982;20.060;2023-03-03T04:40:04;51.92;;;27.58;;
76439;SDS011;65274;44.982;20.060;2023-03-03T04:42:30;56.00;;;28.00;;
76439;SDS011;65274;44.982;20.060;2023-03-03T04:44:56;55.85;;;28.80;;
76439;SDS011;65274;44.982;20.060;2023-03-03T04:47:22;48.60;;;26.55;;
76439;SDS011;65274;44.982;20.060;2023-03-03T04:49:48;48.78;;;26.52;;
76439;SDS011;65274;44.982;20.060;2023-03-03T04:52:14;59.15;;;29.23;;
76439;SDS011;65274;44.982;20.060;2023-03-03T04:54:40;66.78;;;32.80;;
76439;SDS011;65274;44.982;20.060;2023-03-03T04:57:06;65.68;;;32.42;;
76439;SDS011;65274;44.982;20.060;2023-03-03T04:59:33;53.70;;;28.35;;
76439;SDS011;65274;44.982;20.060;2023-03-03T05:02:00;50.38;;;28.42;;
76439;SDS011;65274;44.982;20.060;2023-03-03T05:04:26;56.33;;;27.98;;
76439;SDS011;65274;44.982;20.060;2023-03-03T05:06:52;50.53;;;25.77;;
76439;SDS011;65274;44.982;20.060;2023-03-03T05:09:18;52.63;;;27.00;;
76439;SDS011;65274;44.982;20.060;2023-03-03T05:11:44;57.72;;;30.50;;
76439;SDS011;65274;44.982;20.060;2023-03-03T05:14:10;52.67;;;28.27;;
76439;SDS011;65274;44.982;20.060;2023-03-03T05:16:36;61.00;;;29.15;;
76439;SDS011;65274;44.982;20.060;2023-03-03T05:19:02;57.03;;;27.88;;
76439;SDS011;65274;44.982;20.060;2023-03-03T05:21:28;59.83;;;29.95;;
76439;SDS011;65274;44.982;20.060;2023-03-03T05:23:55;70.45;;;38.60;;
76439;SDS011;65274;44.982;20.060;2023-03-03T05:26:21;85.40;;;44.10;;
76439;SDS011;65274;44.982;20.060;2023-03-03T05:28:47;76.82;;;39.72;;
76439;SDS011;65274;44.982;20.060;2023-03-03T05:31:13;109.20;;;62.95;;
76439;SDS011;65274;44.982;20.060;2023-03-03T05:33:39;84.00;;;44.70;;
76439;SDS011;65274;44.982;20.060;2023-03-03T05:36:05;68.65;;;32.30;;
76439;SDS011;65274;44.982;20.060;2023-03-03T05:38:31;65.18;;;31.88;;
76439;SDS011;65274;44.982;20.060;2023-03-03T05:40:57;64.72;;;32.72;;
76439;SDS011;65274;44.982;20.060;2023-03-03T05:43:23;59.33;;;29.05;;
76439;SDS011;65274;44.982;20.060;2023-03-03T05:45:54;59.30;;;30.58;;
76439;SDS011;65274;44.982;20.060;2023-03-03T05:48:21;53.90;;;28.27;;
76439;SDS011;65274;44.982;20.060;2023-03-03T05:50:47;80.47;;;35.22;;
76439;SDS011;65274;44.982;20.060;2023-03-03T05:53:13;83.13;;;42.65;;
76439;SDS011;65274;44.982;20.060;2023-03-03T05:55:39;193.05;;;86.50;;
76439;SDS011;65274;44.982;20.060;2023-03-03T05:58:05;172.63;;;80.88;;
76439;SDS011;65274;44.982;20.060;2023-03-03T06:00:31;146.07;;;69.32;;
76439;SDS011;65274;44.982;20.060;2023-03-03T06:02:57;75.63;;;37.47;;
76439;SDS011;65274;44.982;20.060;2023-03-03T06:05:23;61.70;;;34.58;;
76439;SDS011;65274;44.982;20.060;2023-03-03T06:07:49;65.35;;;35.00;;
76439;SDS011;65274;44.982;20.060;2023-03-03T06:10:15;72.35;;;33.03;;
76439;SDS011;65274;44.982;20.060;2023-03-03T06:12:41;59.22;;;32.67;;
76439;SDS011;65274;44.982;20.060;2023-03-03T06:15:08;57.85;;;31.77;;
76439;SDS011;65274;44.982;20.060;2023-03-03T06:17:34;59.20;;;33.08;;
76439;SDS011;65274;44.982;20.060;2023-03-03T06:20:00;87.75;;;48.15;;
76439;SDS011;65274;44.982;20.060;2023-03-03T06:22:28;64.53;;;35.40;;
76439;SDS011;65274;44.982;20.060;2023-03-03T06:24:54;57.00;;;32.10;;
76439;SDS011;65274;44.982;20.060;2023-03-03T06:27:20;66.95;;;34.78;;
76439;SDS011;65274;44.982;20.060;2023-03-03T06:29:46;56.75;;;30.95;;
76439;SDS011;65274;44.982;20.060;2023-03-03T06:32:13;50.15;;;28.52;;
76439;SDS011;65274;44.982;20.060;2023-03-03T06:34:39;55.80;;;29.10;;
76439;SDS011;65274;44.982;20.060;2023-03-03T06:37:05;55.60;;;30.08;;
76439;SDS011;65274;44.982;20.060;2023-03-03T06:39:31;52.45;;;29.00;;
76439;SDS011;65274;44.982;20.060;2023-03-03T06:41:57;55.03;;;26.67;;
76439;SDS011;65274;44.982;20.060;2023-03-03T06:44:23;55.90;;;28.55;;
76439;SDS011;65274;44.982;20.060;2023-03-03T06:46:49;56.97;;;29.98;;
76439;SDS011;65274;44.982;20.060;2023-03-03T06:49:15;55.08;;;29.05;;
76439;SDS011;65274;44.982;20.060;2023-03-03T06:51:42;54.65;;;28.92;;
76439;SDS011;65274;44.982;20.060;2023-03-03T06:54:14;63.33;;;31.38;;
76439;SDS011;65274;44.982;20.060;2023-03-03T06:56:40;54.28;;;29.63;;
76439;SDS011;65274;44.982;20.060;2023-03-03T06:59:10;59.83;;;30.15;;
76439;SDS011;65274;44.982;20.060;2023-03-03T07:01:37;60.92;;;30.02;;
76439;SDS011;65274;44.982;20.060;2023-03-03T07:04:25;52.25;;;29.75;;
76439;SDS011;65274;44.982;20.060;2023-03-03T07:06:50;50.20;;;27.88;;
76439;SDS011;65274;44.982;20.060;2023-03-03T07:09:20;59.60;;;29.23;;
76439;SDS011;65274;44.982;20.060;2023-03-03T07:11:47;56.88;;;30.13;;
76439;SDS011;65274;44.982;20.060;2023-03-03T07:14:15;55.83;;;29.70;;
76439;SDS011;65274;44.982;20.060;2023-03-03T07:16:41;50.75;;;29.88;;
76439;SDS011;65274;44.982;20.060;2023-03-03T07:19:13;53.75;;;28.70;;
76439;SDS011;65274;44.982;20.060;2023-03-03T07:21:42;58.63;;;29.92;;
76439;SDS011;65274;44.982;20.060;2023-03-03T07:24:21;55.75;;;30.98;;
76439;SDS011;65274;44.982;20.060;2023-03-03T07:26:50;53.40;;;29.63;;
76439;SDS011;65274;44.982;20.060;2023-03-03T07:29:21;57.33;;;29.52;;
76439;SDS011;65274;44.982;20.060;2023-03-03T07:31:49;59.00;;;30.65;;
76439;SDS011;65274;44.982;20.060;2023-03-03T07:34:23;65.88;;;33.20;;
76439;SDS011;65274;44.982;20.060;2023-03-03T07:36:51;79.40;;;37.75;;
76439;SDS011;65274;44.982;20.060;2023-03-03T07:41:44;70.07;;;34.50;;
76439;SDS011;65274;44.982;20.060;2023-03-03T07:44:28;62.95;;;33.95;;
76439;SDS011;65274;44.982;20.060;2023-03-03T07:46:56;67.60;;;37.83;;
76439;SDS011;65274;44.982;20.060;2023-03-03T07:49:34;61.53;;;35.67;;
76439;SDS011;65274;44.982;20.060;2023-03-03T07:52:01;141.25;;;76.72;;
76439;SDS011;65274;44.982;20.060;2023-03-03T07:59:34;57.97;;;31.90;;
76439;SDS011;65274;44.982;20.060;2023-03-03T08:02:01;56.22;;;32.92;;
76439;SDS011;65274;44.982;20.060;2023-03-03T08:06:59;73.28;;;37.53;;
76439;SDS011;65274;44.982;20.060;2023-03-03T08:09:28;356.08;;;146.95;;
76439;SDS011;65274;44.982;20.060;2023-03-03T08:14:34;460.35;;;230.23;;
76439;SDS011;65274;44.982;20.060;2023-03-03T08:17:00;139.73;;;65.78;;
76439;SDS011;65274;44.982;20.060;2023-03-03T08:19:27;66.53;;;35.75;;
76439;SDS011;65274;44.982;20.060;2023-03-03T08:22:01;367.48;;;177.75;;
76439;SDS011;65274;44.982;20.060;2023-03-03T08:24:34;253.65;;;122.43;;
76439;SDS011;65274;44.982;20.060;2023-03-03T08:27:00;146.60;;;74.10;;
76439;SDS011;65274;44.982;20.060;2023-03-03T08:29:26;361.88;;;195.02;;
76439;SDS011;65274;44.982;20.060;2023-03-03T08:31:52;118.15;;;68.43;;
76439;SDS011;65274;44.982;20.060;2023-03-03T08:34:18;51.33;;;29.02;;
76439;SDS011;65274;44.982;20.060;2023-03-03T08:36:44;51.85;;;27.98;;
76439;SDS011;65274;44.982;20.060;2023-03-03T08:39:11;45.75;;;26.45;;
76439;SDS011;65274;44.982;20.060;2023-03-03T08:41:37;43.50;;;27.00;;
76439;SDS011;65274;44.982;20.060;2023-03-03T08:44:07;54.30;;;28.30;;
76439;SDS011;65274;44.982;20.060;2023-03-03T08:46:33;48.40;;;27.88;;
76439;SDS011;65274;44.982;20.060;2023-03-03T08:49:00;51.03;;;27.63;;
76439;SDS011;65274;44.982;20.060;2023-03-03T08:51:26;48.78;;;28.52;;
76439;SDS011;65274;44.982;20.060;2023-03-03T08:53:52;45.80;;;26.30;;
76439;SDS011;65274;44.982;20.060;2023-03-03T08:56:18;48.15;;;28.73;;
76439;SDS011;65274;44.982;20.060;2023-03-03T08:58:44;89.63;;;59.95;;
76439;SDS011;65274;44.982;20.060;2023-03-03T09:01:12;425.42;;;232.15;;
76439;SDS011;65274;44.982;20.060;2023-03-03T09:03:42;107.40;;;56.47;;
76439;SDS011;65274;44.982;20.060;2023-03-03T09:06:09;52.25;;;31.63;;
76439;SDS011;65274;44.982;20.060;2023-03-03T09:08:35;53.83;;;31.10;;
76439;SDS011;65274;44.982;20.060;2023-03-03T09:11:01;59.90;;;31.80;;
76439;SDS011;65274;44.982;20.060;2023-03-03T09:13:28;54.53;;;29.60;;
76439;SDS011;65274;44.982;20.060;2023-03-03T09:15:56;65.17;;;36.93;;
76439;SDS011;65274;44.982;20.060;2023-03-03T09:18:44;50.97;;;30.58;;
76439;SDS011;65274;44.982;20.060;2023-03-03T09:21:25;127.60;;;75.22;;
76439;SDS011;65274;44.982;20.060;2023-03-03T09:23:55;61.55;;;33.78;;
76439;SDS011;65274;44.982;20.060;2023-03-03T09:28:50;52.38;;;28.20;;
76439;SDS011;65274;44.982;20.060;2023-03-03T09:31:24;48.80;;;28.95;;
76439;SDS011;65274;44.982;20.060;2023-03-03T09:33:50;63.90;;;33.42;;
76439;SDS011;65274;44.982;20.060;2023-03-03T09:38:45;52.20;;;29.33;;
76439;SDS011;65274;44.982;20.060;2023-03-03T09:41:31;59.90;;;33.65;;
76439;SDS011;65274;44.982;20.060;2023-03-03T09:48:58;48.70;;;29.08;;
76439;SDS011;65274;44.982;20.060;2023-03-03T09:51:34;47.40;;;27.70;;
76439;SDS011;65274;44.982;20.060;2023-03-03T09:56:40;41.55;;;25.83;;
76439;SDS011;65274;44.982;20.060;2023-03-03T10:17:26;54.58;;;35.35;;
76439;SDS011;65274;44.982;20.060;2023-03-03T10:25:20;49.03;;;29.05;;
76439;SDS011;65274;44.982;20.060;2023-03-03T10:35:17;40.88;;;25.13;;
76439;SDS011;65274;44.982;20.060;2023-03-03T10:42:53;42.25;;;22.70;;
76439;SDS011;65274;44.982;20.060;2023-03-03T10:47:51;39.70;;;23.58;;
76439;SDS011;65274;44.982;20.060;2023-03-03T10:53:00;43.03;;;24.05;;
76439;SDS011;65274;44.982;20.060;2023-03-03T10:55:35;48.83;;;25.95;;
76439;SDS011;65274;44.982;20.060;2023-03-03T10:58:15;39.70;;;22.15;;
76439;SDS011;65274;44.982;20.060;2023-03-03T11:05:54;37.50;;;22.17;;
76439;SDS011;65274;44.982;20.060;2023-03-03T11:08:26;36.25;;;20.88;;
76439;SDS011;65274;44.982;20.060;2023-03-03T11:13:40;47.17;;;30.02;;
76439;SDS011;65274;44.982;20.060;2023-03-03T11:21:31;39.20;;;24.17;;
76439;SDS011;65274;44.982;20.060;2023-03-03T11:34:26;32.83;;;20.92;;
76439;SDS011;65274;44.982;20.060;2023-03-03T11:37:03;45.05;;;24.33;;
76439;SDS011;65274;44.982;20.060;2023-03-03T11:39:31;41.80;;;26.45;;
76439;SDS011;65274;44.982;20.060;2023-03-03T11:47:05;64.68;;;40.53;;
76439;SDS011;65274;44.982;20.060;2023-03-03T11:59:43;35.47;;;21.88;;
76439;SDS011;65274;44.982;20.060;2023-03-03T12:04:40;39.58;;;23.83;;
76439;SDS011;65274;44.982;20.060;2023-03-03T12:10:05;39.22;;;23.17;;
76439;SDS011;65274;44.982;20.060;2023-03-03T12:12:43;38.40;;;22.92;;
76439;SDS011;65274;44.982;20.060;2023-03-03T12:15:16;36.63;;;22.50;;
76439;SDS011;65274;44.982;20.060;2023-03-03T12:17:48;39.28;;;24.50;;
76439;SDS011;65274;44.982;20.060;2023-03-03T12:20:17;52.20;;;34.22;;
76439;SDS011;65274;44.982;20.060;2023-03-03T12:28:08;43.13;;;27.77;;
76439;SDS011;65274;44.982;20.060;2023-03-03T12:40:40;43.95;;;26.35;;
76439;SDS011;65274;44.982;20.060;2023-03-03T12:48:18;54.83;;;31.20;;
76439;SDS011;65274;44.982;20.060;2023-03-03T12:51:00;47.78;;;27.45;;
76439;SDS011;65274;44.982;20.060;2023-03-03T12:56:12;43.25;;;27.10;;
76439;SDS011;65274;44.982;20.060;2023-03-03T13:01:25;55.75;;;28.00;;
76439;SDS011;65274;44.982;20.060;2023-03-03T13:04:07;52.45;;;29.60;;
76439;SDS011;65274;44.982;20.060;2023-03-03T13:06:53;73.93;;;42.83;;
76439;SDS011;65274;44.982;20.060;2023-03-03T13:17:41;54.75;;;32.15;;
76439;SDS011;65274;44.982;20.060;2023-03-03T13:23:23;55.65;;;29.92;;
76439;SDS011;65274;44.982;20.060;2023-03-03T13:25:52;58.97;;;31.65;;
76439;SDS011;65274;44.982;20.060;2023-03-03T13:28:22;69.28;;;33.00;;
76439;SDS011;65274;44.982;20.060;2023-03-03T13:30:51;57.03;;;31.65;;
76439;SDS011;65274;44.982;20.060;2023-03-03T13:35:54;67.10;;;36.40;;
76439;SDS011;65274;44.982;20.060;2023-03-03T13:46:17;173.40;;;78.22;;
76439;SDS011;65274;44.982;20.060;2023-03-03T13:54:32;60.10;;;33.67;;
76439;SDS011;65274;44.982;20.060;2023-03-03T13:59:35;62.53;;;39.75;;
76439;SDS011;65274;44.982;20.060;2023-03-03T14:04:53;66.70;;;34.80;;
76439;SDS011;65274;44.982;20.060;2023-03-03T14:07:27;61.60;;;36.75;;
76439;SDS011;65274;44.982;20.060;2023-03-03T14:10:01;76.22;;;35.88;;
76439;SDS011;65274;44.982;20.060;2023-03-03T14:22:44;89.82;;;44.80;;
76439;SDS011;65274;44.982;20.060;2023-03-03T14:25:12;75.20;;;39.83;;
76439;SDS011;65274;44.982;20.060;2023-03-03T14:38:13;108.85;;;56.58;;
76439;SDS011;65274;44.982;20.060;2023-03-03T14:40:40;122.93;;;60.45;;
76439;SDS011;65274;44.982;20.060;2023-03-03T14:45:48;101.70;;;49.67;;
76439;SDS011;65274;44.982;20.060;2023-03-03T14:48:21;97.45;;;48.95;;
76439;SDS011;65274;44.982;20.060;2023-03-03T14:55:44;108.95;;;52.63;;
76439;SDS011;65274;44.982;20.060;2023-03-03T14:58:30;120.10;;;55.63;;
76439;SDS011;65274;44.982;20.060;2023-03-03T15:03:45;96.72;;;47.28;;
76439;SDS011;65274;44.982;20.060;2023-03-03T15:06:25;149.68;;;65.32;;
76439;SDS011;65274;44.982;20.060;2023-03-03T15:08:52;108.55;;;49.25;;
76439;SDS011;65274;44.982;20.060;2023-03-03T15:11:26;138.93;;;63.15;;
76439;SDS011;65274;44.982;20.060;2023-03-03T15:13:52;101.63;;;48.03;;
76439;SDS011;65274;44.982;20.060;2023-03-03T15:16:22;99.88;;;47.53;;
76439;SDS011;65274;44.982;20.060;2023-03-03T15:18:54;104.45;;;49.13;;
76439;SDS011;65274;44.982;20.060;2023-03-03T15:21:30;137.88;;;61.92;;
76439;SDS011;65274;44.982;20.060;2023-03-03T15:27:04;108.38;;;50.42;;
76439;SDS011;65274;44.982;20.060;2023-03-03T15:29:38;115.60;;;50.42;;
76439;SDS011;65274;44.982;20.060;2023-03-03T15:32:15;113.45;;;50.47;;
76439;SDS011;65274;44.982;20.060;2023-03-03T15:34:46;113.50;;;49.83;;
76439;SDS011;65274;44.982;20.060;2023-03-03T15:37:25;106.72;;;50.22;;
76439;SDS011;65274;44.982;20.060;2023-03-03T15:43:12;176.68;;;79.82;;
76439;SDS011;65274;44.982;20.060;2023-03-03T15:55:46;140.68;;;56.72;;
76439;SDS011;65274;44.982;20.060;2023-03-03T17:45:18;116.78;;;48.90;;
76439;SDS011;65274;44.982;20.060;2023-03-03T17:55:28;114.30;;;53.50;;
76439;SDS011;65274;44.982;20.060;2023-03-03T18:00:43;124.85;;;51.42;;
76439;SDS011;65274;44.982;20.060;2023-03-03T18:08:28;115.38;;;50.10;;
76439;SDS011;65274;44.982;20.060;2023-03-03T18:11:42;109.32;;;48.08;;
76439;SDS011;65274;44.982;20.060;2023-03-03T18:13:56;115.78;;;49.30;;
76439;SDS011;65274;44.982;20.060;2023-03-03T18:26:40;127.32;;;49.22;;
76439;SDS011;65274;44.982;20.060;2023-03-03T18:32:15;125.53;;;53.40;;
76439;SDS011;65274;44.982;20.060;2023-03-03T18:39:48;106.78;;;46.78;;
76439;SDS011;65274;44.982;20.060;2023-03-03T18:44:44;116.55;;;49.60;;
76439;SDS011;65274;44.982;20.060;2023-03-03T18:47:12;116.82;;;45.10;;
76439;SDS011;65274;44.982;20.060;2023-03-03T18:52:26;122.70;;;46.97;;
76439;SDS011;65274;44.982;20.060;2023-03-03T19:00:43;110.28;;;48.40;;
76439;SDS011;65274;44.982;20.060;2023-03-03T19:02:53;119.78;;;48.55;;
76439;SDS011;65274;44.982;20.060;2023-03-03T19:05:22;126.70;;;50.92;;
76439;SDS011;65274;44.982;20.060;2023-03-03T19:20:40;123.00;;;45.13;;
76439;SDS011;65274;44.982;20.060;2023-03-03T19:25:39;132.68;;;45.45;;
76439;SDS011;65274;44.982;20.060;2023-03-03T19:51:54;131.70;;;45.97;;
76439;SDS011;65274;44.982;20.060;2023-03-03T19:57:10;126.85;;;42.90;;
76439;SDS011;65274;44.982;20.060;2023-03-03T19:59:49;138.82;;;46.40;;
76439;SDS011;65274;44.982;20.060;2023-03-03T20:03:14;124.35;;;45.78;;
76439;SDS011;65274;44.982;20.060;2023-03-03T20:08:03;135.70;;;49.47;;
76439;SDS011;65274;44.982;20.060;2023-03-03T20:13:08;146.25;;;54.83;;
76439;SDS011;65274;44.982;20.060;2023-03-03T20:15:54;150.30;;;47.85;;
76439;SDS011;65274;44.982;20.060;2023-03-03T20:26:29;148.13;;;46.25;;
76439;SDS011;65274;44.982;20.060;2023-03-03T20:29:10;139.10;;;47.75;;
76439;SDS011;65274;44.982;20.060;2023-03-03T20:34:44;149.52;;;45.95;;
76439;SDS011;65274;44.982;20.060;2023-03-03T20:39:47;130.20;;;43.53;;
76439;SDS011;65274;44.982;20.060;2023-03-03T20:42:18;126.20;;;45.13;;
76439;SDS011;65274;44.982;20.060;2023-03-03T20:47:22;134.98;;;44.58;;
76439;SDS011;65274;44.982;20.060;2023-03-03T21:00:11;259.58;;;106.13;;
76439;SDS011;65274;44.982;20.060;2023-03-03T21:02:47;148.55;;;59.33;;
76439;SDS011;65274;44.982;20.060;2023-03-03T21:05:17;140.20;;;48.97;;
76439;SDS011;65274;44.982;20.060;2023-03-03T21:10:23;116.63;;;41.47;;
76439;SDS011;65274;44.982;20.060;2023-03-03T21:12:51;129.60;;;42.90;;
76439;SDS011;65274;44.982;20.060;2023-03-03T21:15:30;110.47;;;39.33;;
76439;SDS011;65274;44.982;20.060;2023-03-03T21:17:59;161.18;;;61.17;;
76439;SDS011;65274;44.982;20.060;2023-03-03T21:20:48;96.13;;;37.65;;
76439;SDS011;65274;44.982;20.060;2023-03-03T21:23:15;102.53;;;38.65;;
76439;SDS011;65274;44.982;20.060;2023-03-03T21:38:34;110.45;;;39.95;;
76439;SDS011;65274;44.982;20.060;2023-03-03T21:41:01;106.45;;;39.80;;
76439;SDS011;65274;44.982;20.060;2023-03-03T21:43:31;103.72;;;37.17;;
76439;SDS011;65274;44.982;20.060;2023-03-03T21:45:57;135.95;;;41.40;;
76439;SDS011;65274;44.982;20.060;2023-03-03T21:48:23;101.45;;;40.03;;
76439;SDS011;65274;44.982;20.060;2023-03-03T21:50:49;139.80;;;51.83;;
76439;SDS011;65274;44.982;20.060;2023-03-03T21:53:16;149.88;;;54.15;;
76439;SDS011;65274;44.982;20.060;2023-03-03T21:55:43;115.97;;;44.50;;
76439;SDS011;65274;44.982;20.060;2023-03-03T21:58:13;99.70;;;35.58;;
76439;SDS011;65274;44.982;20.060;2023-03-03T22:00:39;142.52;;;64.03;;
76439;SDS011;65274;44.982;20.060;2023-03-03T22:03:06;130.87;;;51.20;;
76439;SDS011;65274;44.982;20.060;2023-03-03T22:05:32;94.75;;;34.67;;
76439;SDS011;65274;44.982;20.060;2023-03-03T22:07:59;95.88;;;37.70;;